createdAt,value
2022-08-23T00:02:27.583Z,19.10
2022-08-23T00:05:07.795Z,19.00
2022-08-23T00:07:39.155Z,19.00
2022-08-23T00:10:09.075Z,19.00
2022-08-23T00:12:37.328Z,19.00
2022-08-23T00:15:07.692Z,18.90
2022-08-23T00:17:39.287Z,18.90
2022-08-23T00:20:09.682Z,18.80
2022-08-23T00:22:38.458Z,18.80
2022-08-23T00:25:07.494Z,18.70
2022-08-23T00:27:35.602Z,18.70
2022-08-23T00:30:06.689Z,18.60
2022-08-23T00:32:38.551Z,18.60
2022-08-23T00:35:08.000Z,18.60
2022-08-23T00:37:36.062Z,18.60
2022-08-23T00:40:05.172Z,18.50
2022-08-23T00:42:56.703Z,18.50
2022-08-23T00:45:49.383Z,18.40
2022-08-23T00:48:18.787Z,18.40
2022-08-23T00:50:51.596Z,18.30
2022-08-23T00:53:22.983Z,18.30
2022-08-23T00:55:55.112Z,18.30
2022-08-23T00:58:23.926Z,18.20
2022-08-23T01:00:54.153Z,18.20
2022-08-23T01:03:25.305Z,18.10
2022-08-23T01:06:02.664Z,18.10
2022-08-23T01:08:33.638Z,18.10
2022-08-23T01:11:08.620Z,18.00
2022-08-23T01:13:41.209Z,18.00
2022-08-23T01:16:14.892Z,17.90
2022-08-23T01:18:44.971Z,17.90
2022-08-23T01:21:18.369Z,17.90
2022-08-23T01:23:53.143Z,17.90
2022-08-23T01:26:23.519Z,17.90
2022-08-23T01:28:51.995Z,17.90
2022-08-23T01:31:21.896Z,17.90
2022-08-23T01:33:55.076Z,17.90
2022-08-23T01:36:22.997Z,17.90
2022-08-23T01:38:52.347Z,17.80
2022-08-23T01:41:20.553Z,17.70
2022-08-23T01:43:48.710Z,17.70
2022-08-23T01:46:19.197Z,17.70
2022-08-23T01:48:48.681Z,17.60
2022-08-23T01:51:18.749Z,17.60
2022-08-23T01:53:47.432Z,17.60
2022-08-23T01:56:19.859Z,17.60
2022-08-23T01:58:55.744Z,17.60
2022-08-23T02:01:23.743Z,17.50
2022-08-23T02:04:01.200Z,17.40
2022-08-23T02:06:33.047Z,17.40
2022-08-23T02:09:04.494Z,17.30
2022-08-23T02:11:37.339Z,17.30
2022-08-23T02:14:07.569Z,17.30
2022-08-23T02:16:38.507Z,17.20
2022-08-23T02:19:09.076Z,17.20
2022-08-23T02:21:38.010Z,17.20
2022-08-23T02:24:07.257Z,17.20
2022-08-23T02:26:38.020Z,17.20
2022-08-23T02:29:06.866Z,17.20
2022-08-23T02:31:35.582Z,17.20
2022-08-23T02:36:49.626Z,17.20
2022-08-23T02:39:18.934Z,17.10
2022-08-23T02:41:48.457Z,17.00
2022-08-23T02:44:17.174Z,17.00
2022-08-23T02:46:45.572Z,17.00
2022-08-23T02:49:14.931Z,17.00
2022-08-23T02:51:43.183Z,17.00
2022-08-23T02:54:11.180Z,17.00
2022-08-23T02:56:39.288Z,17.00
2022-08-23T02:59:08.988Z,17.00
2022-08-23T03:01:39.274Z,17.00
2022-08-23T03:04:09.385Z,17.00
2022-08-23T03:06:37.935Z,17.00
2022-08-23T03:09:07.556Z,17.00
2022-08-23T03:11:35.723Z,17.00
2022-08-23T03:14:03.810Z,17.00
2022-08-23T03:16:33.128Z,17.00
2022-08-23T03:19:02.327Z,16.90
2022-08-23T03:21:31.303Z,16.90
2022-08-23T03:24:00.804Z,16.90
2022-08-23T03:26:28.806Z,16.80
2022-08-23T03:28:56.980Z,16.80
2022-08-23T03:31:25.410Z,16.80
2022-08-23T03:33:58.736Z,16.70
2022-08-23T03:36:27.895Z,16.60
2022-08-23T03:38:56.689Z,16.50
2022-08-23T03:41:25.076Z,16.50
2022-08-23T03:43:53.217Z,16.50
2022-08-23T03:46:23.963Z,16.50
2022-08-23T03:48:52.458Z,16.50
2022-08-23T03:51:22.601Z,16.50
2022-08-23T03:53:51.205Z,16.50
2022-08-23T03:56:26.891Z,16.50
2022-08-23T03:58:55.838Z,16.50
2022-08-23T04:01:28.345Z,16.50
2022-08-23T04:03:59.230Z,16.50
2022-08-23T04:06:29.295Z,16.50
2022-08-23T04:08:57.501Z,16.50
2022-08-23T04:11:26.424Z,16.50
2022-08-23T04:13:54.634Z,16.40
2022-08-23T04:16:22.663Z,16.40
2022-08-23T04:18:50.631Z,16.40
2022-08-23T04:21:22.511Z,16.40
2022-08-23T04:23:52.734Z,16.40
2022-08-23T04:26:21.465Z,16.30
2022-08-23T04:28:49.460Z,16.30
2022-08-23T04:31:18.852Z,16.20
2022-08-23T04:33:52.301Z,16.20
2022-08-23T04:36:20.805Z,16.20
2022-08-23T04:38:52.992Z,16.40
2022-08-23T04:41:38.163Z,16.80
2022-08-23T04:44:06.236Z,17.00
2022-08-23T04:46:34.253Z,17.60
2022-08-23T04:49:02.402Z,18.20
2022-08-23T04:51:30.377Z,18.80
2022-08-23T04:53:59.675Z,19.40
2022-08-23T04:56:28.399Z,19.80
2022-08-23T04:58:56.363Z,20.20
2022-08-23T05:01:24.780Z,20.30
2022-08-23T05:03:52.715Z,20.70
2022-08-23T05:06:20.725Z,21.20
2022-08-23T05:08:48.855Z,21.90
2022-08-23T05:11:20.593Z,22.80
2022-08-23T05:13:48.732Z,23.50
2022-08-23T05:16:17.081Z,24.20
2022-08-23T05:18:45.297Z,24.80
2022-08-23T05:21:16.691Z,25.60
2022-08-23T05:23:45.320Z,26.20
2022-08-23T05:26:21.371Z,26.60
2022-08-23T05:28:50.591Z,26.80
2022-08-23T05:31:20.996Z,27.10
2022-08-23T05:33:49.968Z,27.40
2022-08-23T05:36:19.744Z,27.80
2022-08-23T05:38:48.221Z,28.10
2022-08-23T05:41:17.687Z,28.40
2022-08-23T05:43:50.478Z,28.60
2022-08-23T05:46:20.219Z,29.00
2022-08-23T05:48:51.163Z,29.20
2022-08-23T05:51:22.499Z,29.10
2022-08-23T05:53:52.999Z,29.30
2022-08-23T05:56:23.734Z,29.90
2022-08-23T05:58:59.138Z,30.30
2022-08-23T06:01:29.372Z,30.80
2022-08-23T06:03:59.634Z,31.40
2022-08-23T06:06:36.869Z,31.90
2022-08-23T06:09:07.087Z,32.30
2022-08-23T06:11:36.649Z,32.50
2022-08-23T06:14:09.430Z,32.90
2022-08-23T06:16:40.365Z,33.10
2022-08-23T06:19:10.234Z,33.40
2022-08-23T06:21:39.547Z,33.70
2022-08-23T06:24:08.203Z,34.00
2022-08-23T06:26:38.816Z,34.40
2022-08-23T06:29:11.396Z,34.70
2022-08-23T06:31:48.878Z,34.90
2022-08-23T06:34:21.396Z,35.50
2022-08-23T06:36:52.609Z,35.90
2022-08-23T06:39:23.815Z,36.30
2022-08-23T06:41:53.091Z,36.40
2022-08-23T06:44:22.693Z,36.60
2022-08-23T06:46:50.984Z,37.10
2022-08-23T06:49:19.293Z,37.50
2022-08-23T06:51:50.994Z,37.90
2022-08-23T06:54:22.960Z,38.00
2022-08-23T06:56:55.236Z,37.90
2022-08-23T06:59:25.002Z,38.30
2022-08-23T07:01:55.517Z,38.50
2022-08-23T07:04:25.889Z,38.70
2022-08-23T07:06:54.187Z,39.10
2022-08-23T07:09:22.962Z,39.40
2022-08-23T07:11:51.434Z,39.60
2022-08-23T07:14:21.899Z,40.10
2022-08-23T07:16:53.073Z,40.50
2022-08-23T07:19:24.291Z,40.70
2022-08-23T07:21:58.990Z,41.00
2022-08-23T07:24:32.984Z,41.20
2022-08-23T07:27:06.988Z,41.40
2022-08-23T07:29:37.712Z,41.40
2022-08-23T07:32:08.052Z,41.80
2022-08-23T07:34:37.037Z,41.90
2022-08-23T07:37:11.499Z,41.90
2022-08-23T07:39:44.516Z,42.20
2022-08-23T07:42:23.613Z,42.50
2022-08-23T07:44:53.595Z,42.50
2022-08-23T07:47:23.820Z,42.70
2022-08-23T07:49:52.090Z,43.00
2022-08-23T07:52:20.302Z,42.90
2022-08-23T07:54:49.636Z,43.00
2022-08-23T07:57:18.298Z,42.60
2022-08-23T07:59:48.627Z,42.60
2022-08-23T08:02:17.292Z,42.60
2022-08-23T08:04:46.994Z,42.70
2022-08-23T08:07:20.768Z,42.60
2022-08-23T08:09:49.589Z,42.70
2022-08-23T08:12:18.046Z,43.00
2022-08-23T08:14:48.399Z,43.50
2022-08-23T08:17:18.126Z,43.60
2022-08-23T08:19:48.389Z,43.90
2022-08-23T08:22:17.286Z,43.80
2022-08-23T08:24:45.564Z,43.80
2022-08-23T08:27:13.851Z,43.70
2022-08-23T08:29:44.041Z,43.50
2022-08-23T08:32:14.164Z,43.40
2022-08-23T08:34:43.107Z,43.20
2022-08-23T08:37:12.901Z,43.10
2022-08-23T08:39:45.808Z,43.20
2022-08-23T08:42:54.960Z,42.90
2022-08-23T08:45:26.704Z,42.30
2022-08-23T08:48:00.875Z,41.50
2022-08-23T08:50:36.837Z,41.40
2022-08-23T08:53:10.993Z,41.60
2022-08-23T08:55:45.984Z,42.00
2022-08-23T08:58:18.211Z,42.80
2022-08-23T09:00:47.581Z,43.20
2022-08-23T09:03:20.496Z,43.30
2022-08-23T09:05:53.838Z,43.80
2022-08-23T09:08:40.145Z,44.20
2022-08-23T09:11:15.087Z,44.50
2022-08-23T09:14:06.307Z,44.50
2022-08-23T09:16:49.138Z,44.50
2022-08-23T09:19:21.488Z,44.30
2022-08-23T09:21:56.739Z,43.70
2022-08-23T09:24:27.971Z,43.70
2022-08-23T09:26:56.456Z,43.60
2022-08-23T09:29:31.348Z,43.70
2022-08-23T09:32:02.749Z,44.10
2022-08-23T09:34:42.568Z,44.30
2022-08-23T09:37:19.617Z,44.30
2022-08-23T09:39:51.454Z,44.20
2022-08-23T09:42:32.510Z,44.30
2022-08-23T09:45:01.372Z,44.20
2022-08-23T09:47:37.775Z,44.00
2022-08-23T09:50:24.429Z,43.80
2022-08-23T09:52:57.514Z,43.80
2022-08-23T09:55:35.351Z,43.60
2022-08-23T09:58:07.009Z,43.60
2022-08-23T10:00:38.332Z,43.50
2022-08-23T10:03:28.045Z,43.50
2022-08-23T10:05:57.980Z,43.60
2022-08-23T10:08:29.649Z,43.30
2022-08-23T10:11:17.238Z,43.10
2022-08-23T10:13:46.447Z,43.00
2022-08-23T10:16:22.166Z,42.80
2022-08-23T10:18:59.917Z,42.80
2022-08-23T10:21:39.117Z,42.80
2022-08-23T10:24:28.373Z,42.60
2022-08-23T10:27:47.330Z,42.40
2022-08-23T10:30:18.064Z,42.30
2022-08-23T10:32:54.688Z,42.60
2022-08-23T10:35:32.315Z,42.80
2022-08-23T10:38:19.764Z,42.70
2022-08-23T10:40:59.203Z,42.60
2022-08-23T10:43:38.643Z,42.30
2022-08-23T10:46:09.095Z,41.70
2022-08-23T10:48:49.375Z,41.30
2022-08-23T10:51:31.760Z,41.30
2022-08-23T10:54:06.585Z,41.30
2022-08-23T10:56:38.682Z,41.00
2022-08-23T10:59:15.468Z,40.60
2022-08-23T11:01:50.655Z,40.20
2022-08-23T11:04:28.337Z,40.40
2022-08-23T11:06:59.175Z,40.30
2022-08-23T11:09:53.362Z,40.00
2022-08-23T11:12:30.498Z,39.80
2022-08-23T11:15:31.798Z,39.60
2022-08-23T11:18:03.908Z,39.60
2022-08-23T11:21:08.158Z,39.70
2022-08-23T11:23:46.222Z,39.70
2022-08-23T11:26:56.323Z,39.60
2022-08-23T11:29:29.805Z,39.50
2022-08-23T11:32:04.491Z,39.20
2022-08-23T11:34:41.686Z,38.60
2022-08-23T11:37:30.075Z,38.20
2022-08-23T11:40:11.770Z,37.70
2022-08-23T11:42:53.984Z,37.50
2022-08-23T11:45:33.308Z,37.50
2022-08-23T11:48:20.310Z,37.10
2022-08-23T11:51:10.357Z,36.80
2022-08-23T11:53:56.093Z,36.70
2022-08-23T11:56:45.648Z,36.50
2022-08-23T11:59:38.466Z,36.40
2022-08-23T12:02:37.214Z,36.10
2022-08-23T12:05:21.511Z,35.90
2022-08-23T12:07:55.554Z,35.40
2022-08-23T12:11:05.305Z,35.10
2022-08-23T12:14:00.122Z,34.90
2022-08-23T12:16:38.455Z,34.70
2022-08-23T12:19:22.356Z,34.40
2022-08-23T12:21:57.705Z,34.20
2022-08-23T12:24:32.881Z,34.00
2022-08-23T12:27:22.921Z,33.80
2022-08-23T12:29:59.808Z,33.60
2022-08-23T12:32:36.356Z,33.50
2022-08-23T12:35:19.012Z,33.20
2022-08-23T12:38:01.539Z,32.90
2022-08-23T12:40:34.037Z,32.90
2022-08-23T12:43:09.989Z,32.80
2022-08-23T12:45:49.698Z,32.60
2022-08-23T12:48:20.621Z,32.30
2022-08-23T12:50:55.629Z,31.80
2022-08-23T12:53:31.430Z,31.50
2022-08-23T12:56:06.583Z,31.20
2022-08-23T12:58:40.652Z,31.00
2022-08-23T13:01:19.164Z,31.00
2022-08-23T13:03:50.789Z,30.80
2022-08-23T13:06:25.632Z,30.80
2022-08-23T13:09:00.390Z,30.80
2022-08-23T13:11:32.626Z,30.60
2022-08-23T13:14:03.366Z,30.50
2022-08-23T13:16:45.581Z,30.50
2022-08-23T13:19:20.862Z,30.40
2022-08-23T13:21:54.453Z,30.40
2022-08-23T13:24:39.193Z,30.30
2022-08-23T13:27:21.345Z,30.10
2022-08-23T13:29:56.265Z,30.10
2022-08-23T13:32:43.962Z,30.00
2022-08-23T13:35:36.616Z,30.00
2022-08-23T13:38:20.844Z,30.00
2022-08-23T13:40:57.410Z,29.90
2022-08-23T13:43:29.947Z,29.80
2022-08-23T13:46:01.767Z,29.80
2022-08-23T13:48:33.344Z,29.70
2022-08-23T13:51:29.446Z,29.50
2022-08-23T13:54:00.069Z,29.40
2022-08-23T13:56:32.836Z,29.30
2022-08-23T13:59:03.519Z,29.30
2022-08-23T14:01:57.066Z,29.20
2022-08-23T14:04:36.091Z,29.10
2022-08-23T14:07:06.518Z,29.10
2022-08-23T14:09:36.959Z,29.10
2022-08-23T14:12:13.867Z,29.20
2022-08-23T14:14:44.503Z,29.10
2022-08-23T14:17:16.470Z,29.10
2022-08-23T14:22:36.875Z,29.10
2022-08-23T14:25:06.780Z,29.20
2022-08-23T14:27:36.479Z,29.10
2022-08-23T14:30:06.148Z,29.10
2022-08-23T14:32:34.599Z,29.10
2022-08-23T14:35:05.987Z,29.00
2022-08-23T14:40:23.080Z,28.90
2022-08-23T14:42:53.056Z,29.00
2022-08-23T14:45:22.119Z,29.00
2022-08-23T14:47:52.777Z,29.00
2022-08-23T14:50:21.406Z,29.10
2022-08-23T14:52:52.900Z,29.00
2022-08-23T14:55:24.845Z,29.00
2022-08-23T14:57:55.150Z,29.00
2022-08-23T15:00:23.812Z,29.00
2022-08-23T15:02:52.243Z,29.00
2022-08-23T15:05:22.133Z,29.00
2022-08-23T15:07:53.619Z,29.00
2022-08-23T15:13:21.736Z,29.10
2022-08-23T15:15:56.076Z,29.10
2022-08-23T15:18:24.666Z,29.00
2022-08-23T15:20:56.517Z,29.00
2022-08-23T15:23:26.008Z,29.00
2022-08-23T15:26:03.373Z,29.00
2022-08-23T15:28:32.900Z,29.00
2022-08-23T15:31:00.916Z,29.00
2022-08-23T15:33:30.780Z,29.00
2022-08-23T15:36:01.855Z,28.90
2022-08-23T15:38:36.150Z,28.80
2022-08-23T15:41:10.785Z,28.70
2022-08-23T15:43:40.285Z,28.70
2022-08-23T15:46:10.388Z,28.70
2022-08-23T15:48:44.951Z,28.70
2022-08-23T15:51:13.227Z,28.70
2022-08-23T15:53:41.760Z,28.90
2022-08-23T15:56:16.324Z,28.80
2022-08-23T15:58:46.127Z,28.80
2022-08-23T16:01:14.254Z,28.80
2022-08-23T16:03:45.233Z,28.80
2022-08-23T16:06:19.319Z,28.70
2022-08-23T16:09:02.614Z,28.70
2022-08-23T16:11:31.903Z,28.60
2022-08-23T16:14:01.713Z,28.60
2022-08-23T16:16:32.090Z,28.40
2022-08-23T16:19:01.251Z,28.50
2022-08-23T16:21:30.771Z,28.40
2022-08-23T16:24:00.862Z,28.40
2022-08-23T16:26:34.905Z,28.30
2022-08-23T16:29:11.270Z,28.30
2022-08-23T16:31:40.023Z,28.20
2022-08-23T16:34:11.362Z,28.10
2022-08-23T16:36:42.467Z,28.00
2022-08-23T16:39:12.544Z,28.00
2022-08-23T16:41:40.507Z,27.90
2022-08-23T16:44:10.124Z,27.70
2022-08-23T16:46:41.342Z,27.70
2022-08-23T16:49:09.638Z,27.60
2022-08-23T16:51:38.015Z,27.60
2022-08-23T16:54:08.277Z,27.60
2022-08-23T16:56:37.829Z,27.60
2022-08-23T16:59:08.549Z,27.40
2022-08-23T17:01:48.422Z,27.30
2022-08-23T17:04:17.150Z,27.30
2022-08-23T17:06:46.367Z,27.30
2022-08-23T17:09:15.773Z,27.20
2022-08-23T17:11:45.312Z,27.20
2022-08-23T17:14:13.499Z,27.10
2022-08-23T17:16:44.016Z,27.00
2022-08-23T17:19:25.882Z,26.90
2022-08-23T17:21:54.237Z,26.90
2022-08-23T17:24:24.387Z,26.80
2022-08-23T17:26:52.538Z,26.80
2022-08-23T17:29:20.640Z,26.70
2022-08-23T17:31:48.718Z,26.70
2022-08-23T17:34:18.178Z,26.60
2022-08-23T17:36:48.851Z,26.60
2022-08-23T17:39:19.671Z,26.60
2022-08-23T17:41:47.713Z,26.50
2022-08-23T17:44:16.232Z,26.50
2022-08-23T17:46:46.195Z,26.50
2022-08-23T17:49:15.125Z,26.40
2022-08-23T17:51:45.586Z,26.40
2022-08-23T17:54:16.400Z,26.30
2022-08-23T17:56:50.154Z,26.20
2022-08-23T17:59:18.502Z,26.10
2022-08-23T18:01:46.662Z,26.10
2022-08-23T18:04:15.714Z,26.00
2022-08-23T18:06:45.717Z,25.90
2022-08-23T18:09:13.829Z,25.80
2022-08-23T18:11:42.021Z,25.70
2022-08-23T18:14:10.195Z,25.70
2022-08-23T18:16:38.592Z,25.70
2022-08-23T18:19:11.223Z,25.60
2022-08-23T18:21:41.579Z,25.60
2022-08-23T18:24:11.312Z,25.50
2022-08-23T18:26:57.481Z,25.50
2022-08-23T18:29:25.935Z,25.40
2022-08-23T18:31:54.045Z,25.40
2022-08-23T18:34:22.381Z,25.30
2022-08-23T18:36:50.777Z,25.30
2022-08-23T18:39:31.847Z,25.20
2022-08-23T18:42:00.879Z,25.20
2022-08-23T18:44:29.114Z,25.20
2022-08-23T18:46:57.311Z,25.10
2022-08-23T18:49:25.271Z,25.10
2022-08-23T18:51:53.377Z,25.00
2022-08-23T18:54:22.727Z,25.00
2022-08-23T18:56:50.666Z,25.00
2022-08-23T18:59:18.980Z,24.90
2022-08-23T19:01:47.556Z,24.90
2022-08-23T19:04:16.383Z,24.80
2022-08-23T19:06:45.396Z,24.80
2022-08-23T19:09:13.864Z,24.80
2022-08-23T19:11:44.341Z,24.80
2022-08-23T19:14:13.077Z,24.70
2022-08-23T19:16:47.201Z,24.70
2022-08-23T19:19:16.441Z,24.60
2022-08-23T19:21:44.708Z,24.60
2022-08-23T19:24:12.735Z,24.60
2022-08-23T19:26:44.394Z,24.60
2022-08-23T19:29:14.599Z,24.60
2022-08-23T19:31:46.644Z,24.50
2022-08-23T19:34:15.249Z,24.40
2022-08-23T19:36:46.992Z,24.20
2022-08-23T19:39:18.499Z,24.20
2022-08-23T19:41:46.998Z,24.00
2022-08-23T19:44:17.779Z,23.90
2022-08-23T19:46:45.962Z,23.80
2022-08-23T19:49:15.303Z,23.70
2022-08-23T19:51:43.833Z,23.50
2022-08-23T19:54:13.131Z,23.50
2022-08-23T19:56:43.422Z,23.40
2022-08-23T19:59:17.463Z,23.40
2022-08-23T20:01:45.572Z,23.20
2022-08-23T20:04:13.923Z,23.20
2022-08-23T20:06:41.893Z,23.10
2022-08-23T20:09:10.476Z,23.10
2022-08-23T20:11:39.173Z,23.10
2022-08-23T20:14:07.846Z,23.00
2022-08-23T20:16:38.218Z,22.90
2022-08-23T20:19:09.481Z,22.90
2022-08-23T20:21:38.106Z,22.80
2022-08-23T20:24:05.775Z,22.80
2022-08-23T20:26:36.019Z,22.70
2022-08-23T20:29:05.578Z,22.70
2022-08-23T20:31:36.998Z,22.70
2022-08-23T20:34:07.199Z,22.70
2022-08-23T20:36:35.565Z,22.60
2022-08-23T20:39:03.655Z,22.60
2022-08-23T20:41:33.623Z,22.60
2022-08-23T20:44:02.740Z,22.50
2022-08-23T20:46:31.340Z,22.50
2022-08-23T20:49:01.201Z,22.30
2022-08-23T20:51:30.007Z,22.40
2022-08-23T20:54:00.149Z,22.30
2022-08-23T20:56:29.087Z,22.30
2022-08-23T20:58:57.376Z,22.30
2022-08-23T21:01:26.081Z,22.30
2022-08-23T21:03:54.325Z,22.20
2022-08-23T21:06:26.053Z,22.20
2022-08-23T21:08:56.632Z,22.10
2022-08-23T21:11:26.119Z,22.00
2022-08-23T21:13:54.627Z,22.00
2022-08-23T21:16:23.229Z,21.90
2022-08-23T21:18:52.092Z,21.80
2022-08-23T21:21:25.330Z,21.70
2022-08-23T21:23:53.910Z,21.70
2022-08-23T21:26:23.388Z,21.60
2022-08-23T21:28:52.328Z,21.50
2022-08-23T21:31:22.521Z,21.50
2022-08-23T21:33:51.373Z,21.40
2022-08-23T21:36:20.455Z,21.30
2022-08-23T21:38:50.429Z,21.30
2022-08-23T21:41:36.252Z,21.30
2022-08-23T21:44:06.877Z,21.20
2022-08-23T21:46:35.692Z,21.30
2022-08-23T21:49:03.952Z,21.20
2022-08-23T21:51:32.185Z,21.20
2022-08-23T21:54:04.420Z,21.20
2022-08-23T21:56:32.703Z,21.10
2022-08-23T21:59:02.695Z,21.00
2022-08-23T22:01:34.210Z,21.00
2022-08-23T22:04:03.174Z,20.90
2022-08-23T22:06:31.226Z,20.90
2022-08-23T22:08:59.287Z,20.90
2022-08-23T22:11:29.097Z,20.80
2022-08-23T22:14:00.341Z,20.80
2022-08-23T22:16:28.374Z,20.80
2022-08-23T22:18:56.380Z,20.70
2022-08-23T22:21:24.254Z,20.80
2022-08-23T22:23:52.633Z,20.80
2022-08-23T22:26:20.891Z,20.80
2022-08-23T22:28:50.164Z,20.70
2022-08-23T22:31:18.116Z,20.70
2022-08-23T22:33:46.385Z,20.70
2022-08-23T22:36:17.592Z,20.70
2022-08-23T22:38:46.670Z,20.70
2022-08-23T22:41:17.540Z,20.70
2022-08-23T22:43:45.668Z,20.70
2022-08-23T22:46:15.061Z,20.70
2022-08-23T22:48:43.075Z,20.70
2022-08-23T22:51:13.196Z,20.70
2022-08-23T22:53:49.289Z,20.70
2022-08-23T22:56:21.759Z,20.60
2022-08-23T22:58:52.658Z,20.60
2022-08-23T23:01:24.457Z,20.50
2022-08-23T23:03:53.095Z,20.50
2022-08-23T23:06:21.784Z,20.50
2022-08-23T23:08:50.218Z,20.50
2022-08-23T23:11:19.619Z,20.50
2022-08-23T23:13:48.388Z,20.40
2022-08-23T23:16:19.331Z,20.40
2022-08-23T23:19:09.117Z,20.50
2022-08-23T23:21:37.527Z,20.50
2022-08-23T23:24:06.041Z,20.50
2022-08-23T23:26:33.946Z,20.50
2022-08-23T23:29:01.853Z,20.50
2022-08-23T23:31:29.747Z,20.40
2022-08-23T23:33:59.604Z,20.40
2022-08-23T23:36:27.688Z,20.40
2022-08-23T23:38:55.654Z,20.30
2022-08-23T23:41:23.895Z,20.30
2022-08-23T23:43:51.853Z,20.30
2022-08-23T23:46:21.804Z,20.30
2022-08-23T23:48:51.252Z,20.30
2022-08-23T23:51:24.100Z,20.30
2022-08-23T23:53:53.165Z,20.30
2022-08-23T23:56:22.679Z,20.30
2022-08-23T23:58:52.900Z,20.30
